sensor_id;sensor_type;location;lat;lon;timestamp;pressure;altitude;pressure_sealevel;temperature;humidity
7075;BME280;3578;51.568;6.932;2023-04-03T00:00:34;49984.97;;;-144.14;100.00
7075;BME280;3578;51.568;6.932;2023-04-03T00:03:01;49854.84;;;-144.14;100.00
7075;BME280;3578;51.568;6.932;2023-04-03T00:05:28;49796.78;;;-144.14;100.00
7075;BME280;3578;51.568;6.932;2023-04-03T00:07:55;49828.81;;;-144.14;100.00
7075;BME280;3578;51.568;6.932;2023-04-03T00:10:22;49732.72;;;-144.14;100.00
7075;BME280;3578;51.568;6.932;2023-04-03T00:12:49;49758.75;;;-144.14;100.00
7075;BME280;3578;51.568;6.932;2023-04-03T00:15:17;49688.66;;;-144.14;100.00
7075;BME280;3578;51.568;6.932;2023-04-03T00:17:45;49608.59;;;-144.14;100.00
7075;BME280;3578;51.568;6.932;2023-04-03T00:20:12;49688.66;;;-144.14;100.00
7075;BME280;3578;51.568;6.932;2023-04-03T00:22:39;49852.84;;;-144.14;100.00
7075;BME280;3578;51.568;6.932;2023-04-03T00:25:08;49944.94;;;-144.14;100.00
7075;BME280;3578;51.568;6.932;2023-04-03T00:27:37;49986.97;;;-144.14;100.00
7075;BME280;3578;51.568;6.932;2023-04-03T00:30:08;49944.94;;;-144.14;100.00
7075;BME280;3578;51.568;6.932;2023-04-03T00:32:37;49932.91;;;-144.14;100.00
7075;BME280;3578;51.568;6.932;2023-04-03T00:35:07;49876.84;;;-144.14;100.00
7075;BME280;3578;51.568;6.932;2023-04-03T00:37:34;49908.91;;;-144.14;100.00
7075;BME280;3578;51.568;6.932;2023-04-03T00:40:02;49776.75;;;-144.14;100.00
7075;BME280;3578;51.568;6.932;2023-04-03T00:42:30;49592.56;;;-144.14;100.00
7075;BME280;3578;51.568;6.932;2023-04-03T00:45:33;49608.59;;;-144.14;100.00
7075;BME280;3578;51.568;6.932;2023-04-03T00:48:02;49564.53;;;-144.14;100.00
7075;BME280;3578;51.568;6.932;2023-04-03T00:50:35;49594.56;;;-144.14;100.00
7075;BME280;3578;51.568;6.932;2023-04-03T00:53:04;49612.59;;;-144.14;100.00
7075;BME280;3578;51.568;6.932;2023-04-03T00:55:33;49630.63;;;-144.14;100.00
7075;BME280;3578;51.568;6.932;2023-04-03T00:58:02;49694.69;;;-144.14;100.00
7075;BME280;3578;51.568;6.932;2023-04-03T01:00:29;49852.84;;;-144.14;100.00
7075;BME280;3578;51.568;6.932;2023-04-03T01:02:56;50009.00;;;-144.14;100.00
7075;BME280;3578;51.568;6.932;2023-04-03T01:05:24;50337.38;;;-144.14;98.87
7075;BME280;3578;51.568;6.932;2023-04-03T01:07:53;50811.97;;;-144.14;95.48
7075;BME280;3578;51.568;6.932;2023-04-03T01:10:21;51078.34;;;-144.14;92.56
7075;BME280;3578;51.568;6.932;2023-04-03T01:12:49;51240.56;;;-144.14;90.65
7075;BME280;3578;51.568;6.932;2023-04-03T01:15:20;51382.78;;;-144.14;88.48
7075;BME280;3578;51.568;6.932;2023-04-03T01:17:50;51450.88;;;-144.14;88.01
7075;BME280;3578;51.568;6.932;2023-04-03T01:23:53;51599.09;;;-144.14;85.17
7075;BME280;3578;51.568;6.932;2023-04-03T01:26:24;51613.13;;;-144.14;84.90
7075;BME280;3578;51.568;6.932;2023-04-03T01:28:53;51651.19;;;-144.14;84.33
7075;BME280;3578;51.568;6.932;2023-04-03T01:31:25;51675.22;;;-144.14;84.54
7075;BME280;3578;51.568;6.932;2023-04-03T01:33:55;51599.09;;;-144.14;86.27
7075;BME280;3578;51.568;6.932;2023-04-03T01:36:25;51657.19;;;-144.14;85.91
7075;BME280;3578;51.568;6.932;2023-04-03T01:38:54;51641.16;;;-144.14;85.84
7075;BME280;3578;51.568;6.932;2023-04-03T01:41:22;51659.19;;;-144.14;85.84
7075;BME280;3578;51.568;6.932;2023-04-03T01:43:49;51689.25;;;-144.14;85.07
7075;BME280;3578;51.568;6.932;2023-04-03T01:46:17;51683.22;;;-144.14;84.70
7075;BME280;3578;51.568;6.932;2023-04-03T01:48:44;51723.28;;;-144.14;84.98
7075;BME280;3578;51.568;6.932;2023-04-03T01:51:13;51707.28;;;-144.14;84.48
7075;BME280;3578;51.568;6.932;2023-04-03T01:53:40;51717.28;;;-144.14;84.67
7075;BME280;3578;51.568;6.932;2023-04-03T01:56:08;51741.31;;;-144.14;85.01
7075;BME280;3578;51.568;6.932;2023-04-03T01:58:35;51707.28;;;-144.14;84.81
7075;BME280;3578;51.568;6.932;2023-04-03T02:01:02;51747.34;;;-144.14;85.09
7075;BME280;3578;51.568;6.932;2023-04-03T02:03:29;51751.34;;;-144.14;84.54
7075;BME280;3578;51.568;6.932;2023-04-03T02:05:56;51735.31;;;-144.14;84.56
7075;BME280;3578;51.568;6.932;2023-04-03T02:08:25;51715.28;;;-144.14;84.58
7075;BME280;3578;51.568;6.932;2023-04-03T02:10:52;51747.34;;;-144.14;84.52
7075;BME280;3578;51.568;6.932;2023-04-03T02:13:19;51711.28;;;-144.14;85.12
7075;BME280;3578;51.568;6.932;2023-04-03T02:15:46;51723.28;;;-144.14;85.56
7075;BME280;3578;51.568;6.932;2023-04-03T02:18:14;51739.31;;;-144.14;84.90
7075;BME280;3578;51.568;6.932;2023-04-03T02:20:41;51745.34;;;-144.14;84.51
7075;BME280;3578;51.568;6.932;2023-04-03T02:23:08;51741.31;;;-144.14;84.38
7075;BME280;3578;51.568;6.932;2023-04-03T02:25:37;51769.38;;;-144.14;83.79
7075;BME280;3578;51.568;6.932;2023-04-03T02:28:04;51749.34;;;-144.14;83.98
7075;BME280;3578;51.568;6.932;2023-04-03T02:30:31;51789.41;;;-144.14;83.55
7075;BME280;3578;51.568;6.932;2023-04-03T02:32:58;51757.34;;;-144.14;84.27
7075;BME280;3578;51.568;6.932;2023-04-03T02:35:25;51765.38;;;-144.14;85.32
7075;BME280;3578;51.568;6.932;2023-04-03T02:37:52;51765.38;;;-144.14;84.92
7075;BME280;3578;51.568;6.932;2023-04-03T02:40:20;51747.34;;;-144.14;85.53
7075;BME280;3578;51.568;6.932;2023-04-03T02:42:48;51727.31;;;-144.14;86.88
7075;BME280;3578;51.568;6.932;2023-04-03T02:45:15;51725.31;;;-144.14;86.03
7075;BME280;3578;51.568;6.932;2023-04-03T02:47:42;51713.28;;;-144.14;86.03
7075;BME280;3578;51.568;6.932;2023-04-03T02:50:09;51803.44;;;-144.14;84.30
7075;BME280;3578;51.568;6.932;2023-04-03T02:52:36;51805.44;;;-144.14;83.93
7075;BME280;3578;51.568;6.932;2023-04-03T02:55:04;51797.41;;;-144.14;84.56
7075;BME280;3578;51.568;6.932;2023-04-03T02:57:31;51793.41;;;-144.14;83.65
7075;BME280;3578;51.568;6.932;2023-04-03T03:00:00;51799.41;;;-144.14;83.72
7075;BME280;3578;51.568;6.932;2023-04-03T03:02:27;51763.34;;;-144.14;83.93
7075;BME280;3578;51.568;6.932;2023-04-03T03:04:54;51761.34;;;-144.14;84.48
7075;BME280;3578;51.568;6.932;2023-04-03T03:07:21;51715.28;;;-144.14;84.79
7075;BME280;3578;51.568;6.932;2023-04-03T03:09:48;51745.34;;;-144.14;85.20
7075;BME280;3578;51.568;6.932;2023-04-03T03:12:15;51733.31;;;-144.14;85.38
7075;BME280;3578;51.568;6.932;2023-04-03T03:14:46;51729.31;;;-144.14;85.45
7075;BME280;3578;51.568;6.932;2023-04-03T03:17:15;51761.34;;;-144.14;86.03
7075;BME280;3578;51.568;6.932;2023-04-03T03:19:42;51755.34;;;-144.14;85.74
7075;BME280;3578;51.568;6.932;2023-04-03T03:22:09;51779.38;;;-144.14;85.48
7075;BME280;3578;51.568;6.932;2023-04-03T03:24:36;51767.38;;;-144.14;85.40
7075;BME280;3578;51.568;6.932;2023-04-03T03:27:03;51719.28;;;-144.14;85.80
7075;BME280;3578;51.568;6.932;2023-04-03T03:29:31;51749.34;;;-144.14;85.93
7075;BME280;3578;51.568;6.932;2023-04-03T03:31:58;51735.31;;;-144.14;86.48
7075;BME280;3578;51.568;6.932;2023-04-03T03:34:26;51751.34;;;-144.14;85.95
7075;BME280;3578;51.568;6.932;2023-04-03T03:36:53;51751.34;;;-144.14;85.84
7075;BME280;3578;51.568;6.932;2023-04-03T03:39:20;51751.34;;;-144.14;85.77
7075;BME280;3578;51.568;6.932;2023-04-03T03:41:47;51747.34;;;-144.14;85.03
7075;BME280;3578;51.568;6.932;2023-04-03T03:44:15;51749.34;;;-144.14;85.40
7075;BME280;3578;51.568;6.932;2023-04-03T03:46:42;51739.31;;;-144.14;85.82
7075;BME280;3578;51.568;6.932;2023-04-03T03:49:09;51743.34;;;-144.14;85.62
7075;BME280;3578;51.568;6.932;2023-04-03T03:51:38;51729.31;;;-144.14;85.42
7075;BME280;3578;51.568;6.932;2023-04-03T03:54:06;51741.31;;;-144.14;85.88
7075;BME280;3578;51.568;6.932;2023-04-03T03:56:34;51753.34;;;-144.14;85.96
7075;BME280;3578;51.568;6.932;2023-04-03T03:59:01;51763.34;;;-144.14;85.46
7075;BME280;3578;51.568;6.932;2023-04-03T04:01:27;51741.31;;;-144.14;85.65
7075;BME280;3578;51.568;6.932;2023-04-03T04:03:55;51793.41;;;-144.14;85.78
7075;BME280;3578;51.568;6.932;2023-04-03T04:06:22;51763.34;;;-144.14;85.58
7075;BME280;3578;51.568;6.932;2023-04-03T04:08:51;51761.34;;;-144.14;85.47
7075;BME280;3578;51.568;6.932;2023-04-03T04:11:18;51769.38;;;-144.14;85.13
7075;BME280;3578;51.568;6.932;2023-04-03T04:13:45;51779.38;;;-144.14;85.09
7075;BME280;3578;51.568;6.932;2023-04-03T04:16:12;51753.34;;;-144.14;85.16
7075;BME280;3578;51.568;6.932;2023-04-03T04:18:39;51793.41;;;-144.14;86.07
7075;BME280;3578;51.568;6.932;2023-04-03T04:21:06;51741.31;;;-144.14;86.46
7075;BME280;3578;51.568;6.932;2023-04-03T04:23:33;51719.28;;;-144.14;86.82
7075;BME280;3578;51.568;6.932;2023-04-03T04:26:01;51703.25;;;-144.14;86.04
7075;BME280;3578;51.568;6.932;2023-04-03T04:28:28;51731.31;;;-144.14;86.19
7075;BME280;3578;51.568;6.932;2023-04-03T04:30:55;51755.34;;;-144.14;86.28
7075;BME280;3578;51.568;6.932;2023-04-03T04:33:22;51753.34;;;-144.14;86.84
7075;BME280;3578;51.568;6.932;2023-04-03T04:35:49;51699.25;;;-144.14;87.09
7075;BME280;3578;51.568;6.932;2023-04-03T04:38:17;51727.31;;;-144.14;87.13
7075;BME280;3578;51.568;6.932;2023-04-03T04:40:44;51717.28;;;-144.14;87.07
7075;BME280;3578;51.568;6.932;2023-04-03T04:43:13;51689.25;;;-144.14;87.05
7075;BME280;3578;51.568;6.932;2023-04-03T04:45:41;51723.28;;;-144.14;87.62
7075;BME280;3578;51.568;6.932;2023-04-03T04:48:08;51723.28;;;-144.14;87.16
7075;BME280;3578;51.568;6.932;2023-04-03T04:50:35;51727.31;;;-144.14;86.96
7075;BME280;3578;51.568;6.932;2023-04-03T04:53:02;51707.28;;;-144.14;86.78
7075;BME280;3578;51.568;6.932;2023-04-03T04:55:29;51781.38;;;-144.14;86.05
7075;BME280;3578;51.568;6.932;2023-04-03T04:57:56;51749.34;;;-144.14;85.88
7075;BME280;3578;51.568;6.932;2023-04-03T05:00:25;51745.34;;;-144.14;86.38
7075;BME280;3578;51.568;6.932;2023-04-03T05:02:52;51719.28;;;-144.14;87.39
7075;BME280;3578;51.568;6.932;2023-04-03T05:05:19;51719.28;;;-144.14;88.05
7075;BME280;3578;51.568;6.932;2023-04-03T05:07:46;51675.22;;;-144.14;89.00
7075;BME280;3578;51.568;6.932;2023-04-03T05:10:13;51659.19;;;-144.14;88.71
7075;BME280;3578;51.568;6.932;2023-04-03T05:12:40;51679.22;;;-144.14;88.64
7075;BME280;3578;51.568;6.932;2023-04-03T05:15:08;51687.25;;;-144.14;87.61
7075;BME280;3578;51.568;6.932;2023-04-03T05:17:37;51667.22;;;-144.14;88.10
7075;BME280;3578;51.568;6.932;2023-04-03T05:20:05;51727.31;;;-144.14;87.09
7075;BME280;3578;51.568;6.932;2023-04-03T05:22:34;51695.25;;;-144.14;86.89
7075;BME280;3578;51.568;6.932;2023-04-03T05:25:01;51701.25;;;-144.14;87.13
7075;BME280;3578;51.568;6.932;2023-04-03T05:27:28;51691.25;;;-144.14;86.85
7075;BME280;3578;51.568;6.932;2023-04-03T05:29:55;51679.22;;;-144.14;87.00
7075;BME280;3578;51.568;6.932;2023-04-03T05:32:24;51671.22;;;-144.14;86.94
7075;BME280;3578;51.568;6.932;2023-04-03T05:34:53;51693.25;;;-144.14;87.04
7075;BME280;3578;51.568;6.932;2023-04-03T05:37:20;51713.28;;;-144.14;86.98
7075;BME280;3578;51.568;6.932;2023-04-03T05:39:47;51751.34;;;-144.14;85.61
7075;BME280;3578;51.568;6.932;2023-04-03T05:42:14;51781.38;;;-144.14;85.22
7075;BME280;3578;51.568;6.932;2023-04-03T05:44:42;51759.34;;;-144.14;84.80
7075;BME280;3578;51.568;6.932;2023-04-03T05:47:09;51789.41;;;-144.14;84.24
7075;BME280;3578;51.568;6.932;2023-04-03T05:49:36;51809.44;;;-144.14;83.87
7075;BME280;3578;51.568;6.932;2023-04-03T05:52:13;51829.47;;;-144.14;82.06
7075;BME280;3578;51.568;6.932;2023-04-03T05:54:44;51895.56;;;-144.14;79.49
7075;BME280;3578;51.568;6.932;2023-04-03T05:57:13;51957.69;;;-144.14;77.97
7075;BME280;3578;51.568;6.932;2023-04-03T05:59:42;51999.75;;;-144.14;77.10
7075;BME280;3578;51.568;6.932;2023-04-03T06:02:12;52007.75;;;-144.14;77.37
7075;BME280;3578;51.568;6.932;2023-04-03T06:04:40;52150.00;;;-144.14;72.29
7075;BME280;3578;51.568;6.932;2023-04-03T06:07:10;52308.28;;;-144.14;66.58
7075;BME280;3578;51.568;6.932;2023-04-03T06:09:39;52436.50;;;-144.14;61.44
7075;BME280;3578;51.568;6.932;2023-04-03T06:12:06;52550.72;;;-144.14;59.82
7075;BME280;3578;51.568;6.932;2023-04-03T06:14:33;52646.91;;;-144.14;55.03
7075;BME280;3578;51.568;6.932;2023-04-03T06:17:00;52733.06;;;-144.14;53.66
7075;BME280;3578;51.568;6.932;2023-04-03T06:19:28;52688.97;;;-144.14;55.32
7075;BME280;3578;51.568;6.932;2023-04-03T06:21:55;52761.09;;;-144.14;55.51
7075;BME280;3578;51.568;6.932;2023-04-03T06:24:24;52805.19;;;-144.14;51.96
7075;BME280;3578;51.568;6.932;2023-04-03T06:26:52;52901.38;;;-144.14;50.69
7075;BME280;3578;51.568;6.932;2023-04-03T06:29:19;52999.56;;;-144.14;48.27
7075;BME280;3578;51.568;6.932;2023-04-03T06:31:46;52973.53;;;-144.14;48.51
7075;BME280;3578;51.568;6.932;2023-04-03T06:34:14;53077.72;;;-144.14;46.79
7075;BME280;3578;51.568;6.932;2023-04-03T06:36:41;53208.00;;;-144.14;46.09
7075;BME280;3578;51.568;6.932;2023-04-03T06:39:09;53378.34;;;-144.14;43.09
7075;BME280;3578;51.568;6.932;2023-04-03T06:41:39;53460.50;;;-144.14;42.99
7075;BME280;3578;51.568;6.932;2023-04-03T06:44:06;53348.28;;;-144.14;43.24
7075;BME280;3578;51.568;6.932;2023-04-03T06:46:37;53338.25;;;-144.14;44.21
7075;BME280;3578;51.568;6.932;2023-04-03T06:49:04;53318.22;;;-144.14;44.39
7075;BME280;3578;51.568;6.932;2023-04-03T06:51:34;53244.06;;;-144.14;46.00
7075;BME280;3578;51.568;6.932;2023-04-03T06:54:03;53220.00;;;-144.14;46.90
7075;BME280;3578;51.568;6.932;2023-04-03T06:56:30;53320.22;;;-144.14;45.82
7075;BME280;3578;51.568;6.932;2023-04-03T06:58:59;53354.28;;;-144.14;43.47
7075;BME280;3578;51.568;6.932;2023-04-03T07:01:28;53362.31;;;-144.14;44.14
7075;BME280;3578;51.568;6.932;2023-04-03T07:03:56;53410.41;;;-144.14;43.91
7075;BME280;3578;51.568;6.932;2023-04-03T07:06:23;53322.22;;;-144.14;44.16
7075;BME280;3578;51.568;6.932;2023-04-03T07:08:52;53284.13;;;-144.14;46.18
7075;BME280;3578;51.568;6.932;2023-04-03T07:11:20;53274.13;;;-144.14;46.13
7075;BME280;3578;51.568;6.932;2023-04-03T07:13:47;53310.19;;;-144.14;45.27
7075;BME280;3578;51.568;6.932;2023-04-03T07:16:15;53378.34;;;-144.14;44.24
7075;BME280;3578;51.568;6.932;2023-04-03T07:18:42;53362.31;;;-144.14;43.57
7075;BME280;3578;51.568;6.932;2023-04-03T07:21:09;53360.28;;;-144.14;43.37
7075;BME280;3578;51.568;6.932;2023-04-03T07:23:36;53438.47;;;-144.14;42.90
7075;BME280;3578;51.568;6.932;2023-04-03T07:26:03;53486.56;;;-144.14;41.59
7075;BME280;3578;51.568;6.932;2023-04-03T07:28:31;53652.91;;;-144.14;39.92
7075;BME280;3578;51.568;6.932;2023-04-03T07:31:03;53971.63;;;-144.14;36.63
7075;BME280;3578;51.568;6.932;2023-04-03T07:33:33;54220.19;;;-144.14;34.99
7075;BME280;3578;51.568;6.932;2023-04-03T07:36:01;54314.41;;;-144.14;34.06
7075;BME280;3578;51.568;6.932;2023-04-03T07:38:28;54286.34;;;-144.14;35.06
7075;BME280;3578;51.568;6.932;2023-04-03T07:40:55;54240.25;;;-144.14;35.10
7075;BME280;3578;51.568;6.932;2023-04-03T07:43:22;54350.50;;;-144.14;34.64
7075;BME280;3578;51.568;6.932;2023-04-03T07:45:50;54516.91;;;-144.14;33.70
7075;BME280;3578;51.568;6.932;2023-04-03T07:48:18;54925.91;;;-144.14;32.21
7075;BME280;3578;51.568;6.932;2023-04-03T07:50:46;55599.69;;;-144.14;30.15
7075;BME280;3578;51.568;6.932;2023-04-03T07:53:14;55778.19;;;-144.14;27.62
7075;BME280;3578;51.568;6.932;2023-04-03T07:55:41;55736.06;;;-144.14;27.09
7075;BME280;3578;51.568;6.932;2023-04-03T07:58:11;55854.38;;;-144.14;27.08
7075;BME280;3578;51.568;6.932;2023-04-03T08:00:38;55930.59;;;-144.14;27.85
7075;BME280;3578;51.568;6.932;2023-04-03T08:03:06;55695.94;;;-144.14;28.63
7075;BME280;3578;51.568;6.932;2023-04-03T08:05:37;55882.47;;;-144.14;27.75
7075;BME280;3578;51.568;6.932;2023-04-03T08:08:06;55760.13;;;-144.14;27.31
7075;BME280;3578;51.568;6.932;2023-04-03T08:10:33;55886.47;;;-144.14;27.43
7075;BME280;3578;51.568;6.932;2023-04-03T08:13:01;55894.50;;;-144.14;26.00
7075;BME280;3578;51.568;6.932;2023-04-03T08:15:30;55084.31;;;-144.14;28.51
7075;BME280;3578;51.568;6.932;2023-04-03T08:17:57;54565.00;;;-144.14;31.61
7075;BME280;3578;51.568;6.932;2023-04-03T08:20:24;54346.50;;;-144.14;33.42
7075;BME280;3578;51.568;6.932;2023-04-03T08:22:51;54178.09;;;-144.14;34.36
7075;BME280;3578;51.568;6.932;2023-04-03T08:25:20;54063.84;;;-144.14;35.81
7075;BME280;3578;51.568;6.932;2023-04-03T08:27:47;54023.75;;;-144.14;36.42
7075;BME280;3578;51.568;6.932;2023-04-03T08:30:14;54071.84;;;-144.14;36.04
7075;BME280;3578;51.568;6.932;2023-04-03T08:32:41;54561.00;;;-144.14;32.03
7075;BME280;3578;51.568;6.932;2023-04-03T08:35:10;54947.97;;;-144.14;29.64
7075;BME280;3578;51.568;6.932;2023-04-03T08:37:37;55268.78;;;-144.14;28.03
7075;BME280;3578;51.568;6.932;2023-04-03T08:40:07;55493.41;;;-144.14;26.69
7075;BME280;3578;51.568;6.932;2023-04-03T08:42:48;55427.22;;;-144.14;25.65
7075;BME280;3578;51.568;6.932;2023-04-03T08:45:21;54587.06;;;-144.14;29.24
7075;BME280;3578;51.568;6.932;2023-04-03T08:47:57;54312.41;;;-144.14;32.16
7075;BME280;3578;51.568;6.932;2023-04-03T08:50:30;54136.00;;;-144.14;33.70
7075;BME280;3578;51.568;6.932;2023-04-03T08:52:59;53999.69;;;-144.14;35.35
7075;BME280;3578;51.568;6.932;2023-04-03T08:55:33;53991.66;;;-144.14;36.28
7075;BME280;3578;51.568;6.932;2023-04-03T08:58:05;53959.59;;;-144.14;36.32
7075;BME280;3578;51.568;6.932;2023-04-03T09:00:41;53923.50;;;-144.14;36.58
7075;BME280;3578;51.568;6.932;2023-04-03T09:03:13;53855.38;;;-144.14;36.07
7075;BME280;3578;51.568;6.932;2023-04-03T09:05:46;53839.31;;;-144.14;37.71
7075;BME280;3578;51.568;6.932;2023-04-03T09:08:22;53889.44;;;-144.14;37.51
7075;BME280;3578;51.568;6.932;2023-04-03T09:11:09;53873.41;;;-144.14;37.18
7075;BME280;3578;51.568;6.932;2023-04-03T09:13:49;53855.38;;;-144.14;36.68
7075;BME280;3578;51.568;6.932;2023-04-03T09:16:33;53871.41;;;-144.14;36.08
7075;BME280;3578;51.568;6.932;2023-04-03T09:19:11;53849.34;;;-144.14;36.50
7075;BME280;3578;51.568;6.932;2023-04-03T09:21:42;53861.38;;;-144.14;36.67
7075;BME280;3578;51.568;6.932;2023-04-03T09:24:12;53847.34;;;-144.14;36.44
7075;BME280;3578;51.568;6.932;2023-04-03T09:26:43;53875.41;;;-144.14;36.86
7075;BME280;3578;51.568;6.932;2023-04-03T09:29:17;53823.28;;;-144.14;36.00
7075;BME280;3578;51.568;6.932;2023-04-03T09:31:48;53813.28;;;-144.14;37.05
7075;BME280;3578;51.568;6.932;2023-04-03T09:34:20;53851.34;;;-144.14;36.27
7075;BME280;3578;51.568;6.932;2023-04-03T09:36:51;53843.34;;;-144.14;37.22
7075;BME280;3578;51.568;6.932;2023-04-03T09:39:20;53831.31;;;-144.14;36.37
7075;BME280;3578;51.568;6.932;2023-04-03T09:41:58;53907.47;;;-144.14;35.47
7075;BME280;3578;51.568;6.932;2023-04-03T09:44:29;53867.38;;;-144.14;34.78
7075;BME280;3578;51.568;6.932;2023-04-03T09:46:57;53847.34;;;-144.14;35.40
7075;BME280;3578;51.568;6.932;2023-04-03T09:49:24;53819.28;;;-144.14;34.41
7075;BME280;3578;51.568;6.932;2023-04-03T09:51:51;53879.41;;;-144.14;33.85
7075;BME280;3578;51.568;6.932;2023-04-03T09:54:33;53923.50;;;-144.14;31.95
7075;BME280;3578;51.568;6.932;2023-04-03T09:57:08;53855.38;;;-144.14;31.63
7075;BME280;3578;51.568;6.932;2023-04-03T09:59:46;53891.44;;;-144.14;33.00
7075;BME280;3578;51.568;6.932;2023-04-03T10:02:31;53909.47;;;-144.14;32.17
7075;BME280;3578;51.568;6.932;2023-04-03T10:04:59;53873.41;;;-144.14;33.34
7075;BME280;3578;51.568;6.932;2023-04-03T10:07:30;53887.44;;;-144.14;32.84
7075;BME280;3578;51.568;6.932;2023-04-03T10:10:00;53871.41;;;-144.14;32.36
7075;BME280;3578;51.568;6.932;2023-04-03T10:12:29;53875.41;;;-144.14;34.39
7075;BME280;3578;51.568;6.932;2023-04-03T10:14:59;53895.44;;;-144.14;31.79
7075;BME280;3578;51.568;6.932;2023-04-03T10:17:38;53903.47;;;-144.14;32.45
7075;BME280;3578;51.568;6.932;2023-04-03T10:20:31;53885.44;;;-144.14;32.42
7075;BME280;3578;51.568;6.932;2023-04-03T10:23:15;53889.44;;;-144.14;32.78
7075;BME280;3578;51.568;6.932;2023-04-03T10:25:54;53915.50;;;-144.14;33.53
7075;BME280;3578;51.568;6.932;2023-04-03T10:28:33;53883.44;;;-144.14;33.84
7075;BME280;3578;51.568;6.932;2023-04-03T10:31:13;53865.38;;;-144.14;34.36
7075;BME280;3578;51.568;6.932;2023-04-03T10:33:53;53937.53;;;-144.14;32.87
7075;BME280;3578;51.568;6.932;2023-04-03T10:36:36;53931.53;;;-144.14;33.13
7075;BME280;3578;51.568;6.932;2023-04-03T10:39:15;53879.41;;;-144.14;32.61
7075;BME280;3578;51.568;6.932;2023-04-03T10:41:59;53855.38;;;-144.14;32.76
7075;BME280;3578;51.568;6.932;2023-04-03T10:44:37;53903.47;;;-144.14;33.58
7075;BME280;3578;51.568;6.932;2023-04-03T10:47:16;53935.53;;;-144.14;34.23
7075;BME280;3578;51.568;6.932;2023-04-03T10:49:55;53905.47;;;-144.14;32.81
7075;BME280;3578;51.568;6.932;2023-04-03T10:52:31;53861.38;;;-144.14;33.77
7075;BME280;3578;51.568;6.932;2023-04-03T10:55:18;53889.44;;;-144.14;33.58
7075;BME280;3578;51.568;6.932;2023-04-03T10:57:49;53863.38;;;-144.14;33.22
7075;BME280;3578;51.568;6.932;2023-04-03T11:00:22;53881.41;;;-144.14;34.29
7075;BME280;3578;51.568;6.932;2023-04-03T11:02:56;53883.44;;;-144.14;33.61
7075;BME280;3578;51.568;6.932;2023-04-03T11:05:31;53851.34;;;-144.14;33.60
7075;BME280;3578;51.568;6.932;2023-04-03T11:08:05;53859.38;;;-144.14;33.77
7075;BME280;3578;51.568;6.932;2023-04-03T11:10:40;53871.41;;;-144.14;34.38
7075;BME280;3578;51.568;6.932;2023-04-03T11:13:13;53873.41;;;-144.14;33.68
7075;BME280;3578;51.568;6.932;2023-04-03T11:15:43;53879.41;;;-144.14;36.08
7075;BME280;3578;51.568;6.932;2023-04-03T11:18:15;53899.47;;;-144.14;35.49
7075;BME280;3578;51.568;6.932;2023-04-03T11:20:53;53923.50;;;-144.14;33.81
7075;BME280;3578;51.568;6.932;2023-04-03T11:23:25;53907.47;;;-144.14;34.21
7075;BME280;3578;51.568;6.932;2023-04-03T11:26:05;53955.59;;;-144.14;35.11
7075;BME280;3578;51.568;6.932;2023-04-03T11:28:33;53945.56;;;-144.14;33.32
7075;BME280;3578;51.568;6.932;2023-04-03T11:31:13;53949.56;;;-144.14;33.21
7075;BME280;3578;51.568;6.932;2023-04-03T11:34:05;53967.63;;;-144.14;33.68
7075;BME280;3578;51.568;6.932;2023-04-03T11:36:40;53955.59;;;-144.14;34.68
7075;BME280;3578;51.568;6.932;2023-04-03T11:39:18;53945.56;;;-144.14;34.67
7075;BME280;3578;51.568;6.932;2023-04-03T11:41:47;53983.66;;;-144.14;34.24
7075;BME280;3578;51.568;6.932;2023-04-03T11:44:32;53977.63;;;-144.14;34.73
7075;BME280;3578;51.568;6.932;2023-04-03T11:47:08;53957.59;;;-144.14;33.85
7075;BME280;3578;51.568;6.932;2023-04-03T11:49:58;54009.72;;;-144.14;33.45
7075;BME280;3578;51.568;6.932;2023-04-03T11:52:58;53991.66;;;-144.14;34.02
7075;BME280;3578;51.568;6.932;2023-04-03T11:55:54;53959.59;;;-144.14;33.13
7075;BME280;3578;51.568;6.932;2023-04-03T11:58:23;53963.59;;;-144.14;33.41
7075;BME280;3578;51.568;6.932;2023-04-03T12:01:07;53929.53;;;-144.14;33.61
7075;BME280;3578;51.568;6.932;2023-04-03T12:04:07;53941.56;;;-144.14;33.64
7075;BME280;3578;51.568;6.932;2023-04-03T12:07:18;53971.63;;;-144.14;34.24
7075;BME280;3578;51.568;6.932;2023-04-03T12:09:58;53973.63;;;-144.14;33.21
7075;BME280;3578;51.568;6.932;2023-04-03T12:12:56;53959.59;;;-144.14;33.41
7075;BME280;3578;51.568;6.932;2023-04-03T12:15:50;53959.59;;;-144.14;33.74
7075;BME280;3578;51.568;6.932;2023-04-03T12:18:58;53977.63;;;-144.14;33.28
7075;BME280;3578;51.568;6.932;2023-04-03T12:22:07;53941.56;;;-144.14;32.76
7075;BME280;3578;51.568;6.932;2023-04-03T12:24:38;53987.66;;;-144.14;32.68
7075;BME280;3578;51.568;6.932;2023-04-03T12:27:23;53983.66;;;-144.14;33.40
7075;BME280;3578;51.568;6.932;2023-04-03T12:30:00;53955.59;;;-144.14;32.47
7075;BME280;3578;51.568;6.932;2023-04-03T12:32:56;53911.50;;;-144.14;32.83
7075;BME280;3578;51.568;6.932;2023-04-03T12:35:34;53953.59;;;-144.14;32.75
7075;BME280;3578;51.568;6.932;2023-04-03T12:41:28;53929.53;;;-144.14;33.33
7075;BME280;3578;51.568;6.932;2023-04-03T12:44:18;53955.59;;;-144.14;33.10
7075;BME280;3578;51.568;6.932;2023-04-03T12:46:50;53971.63;;;-144.14;33.57
7075;BME280;3578;51.568;6.932;2023-04-03T12:49:35;53939.56;;;-144.14;34.32
7075;BME280;3578;51.568;6.932;2023-04-03T12:52:06;53967.63;;;-144.14;33.83
7075;BME280;3578;51.568;6.932;2023-04-03T12:54:46;54001.69;;;-144.14;33.37
7075;BME280;3578;51.568;6.932;2023-04-03T12:57:23;54019.72;;;-144.14;33.67
7075;BME280;3578;51.568;6.932;2023-04-03T12:59:51;53981.66;;;-144.14;33.74
7075;BME280;3578;51.568;6.932;2023-04-03T13:02:24;54007.69;;;-144.14;33.69
7075;BME280;3578;51.568;6.932;2023-04-03T13:04:55;53997.69;;;-144.14;33.03
7075;BME280;3578;51.568;6.932;2023-04-03T13:07:28;53995.69;;;-144.14;33.60
7075;BME280;3578;51.568;6.932;2023-04-03T13:10:16;54027.75;;;-144.14;34.94
7075;BME280;3578;51.568;6.932;2023-04-03T13:12:50;54043.78;;;-144.14;33.64
7075;BME280;3578;51.568;6.932;2023-04-03T13:15:20;54007.69;;;-144.14;33.35
7075;BME280;3578;51.568;6.932;2023-04-03T13:17:49;53983.66;;;-144.14;32.33
7075;BME280;3578;51.568;6.932;2023-04-03T13:20:22;53983.66;;;-144.14;33.09
7075;BME280;3578;51.568;6.932;2023-04-03T13:22:58;54001.69;;;-144.14;33.44
7075;BME280;3578;51.568;6.932;2023-04-03T13:25:29;53983.66;;;-144.14;34.04
7075;BME280;3578;51.568;6.932;2023-04-03T13:28:00;54027.75;;;-144.14;32.85